createdAt,value
2018-01-19T00:00:31.739Z,15.70
2018-01-19T00:01:31.709Z,16.00
2018-01-19T00:02:31.703Z,16.10
2018-01-19T00:03:31.686Z,16.20
2018-01-19T00:04:31.673Z,16.50
2018-01-19T00:05:31.670Z,16.70
2018-01-19T00:06:31.649Z,16.20
2018-01-19T00:07:31.636Z,16.00
2018-01-19T00:08:31.622Z,16.70
2018-01-19T00:09:31.609Z,16.60
2018-01-19T00:10:31.595Z,16.80
2018-01-19T00:11:31.584Z,16.60
2018-01-19T00:12:31.567Z,15.50
2018-01-19T00:13:31.558Z,16.40
2018-01-19T00:14:31.550Z,17.10
2018-01-19T00:15:31.531Z,15.90
2018-01-19T00:16:31.523Z,17.60
2018-01-19T00:17:31.510Z,16.90
2018-01-19T00:18:31.496Z,16.50
2018-01-19T00:19:31.482Z,16.00
2018-01-19T00:20:31.468Z,15.50
2018-01-19T00:21:31.453Z,16.70
2018-01-19T00:22:31.445Z,16.20
2018-01-19T00:23:31.431Z,16.60
2018-01-19T00:24:31.418Z,16.50
2018-01-19T00:25:31.404Z,16.80
2018-01-19T00:26:31.426Z,17.00
2018-01-19T00:27:31.379Z,16.90
2018-01-19T00:28:31.369Z,17.30
2018-01-19T00:29:31.355Z,16.70
2018-01-19T00:30:31.337Z,16.30
2018-01-19T00:31:31.334Z,16.80
2018-01-19T00:32:31.325Z,16.20
2018-01-19T00:33:31.318Z,16.70
2018-01-19T00:34:31.288Z,17.50
2018-01-19T00:35:31.282Z,15.90
2018-01-19T00:36:31.264Z,16.90
2018-01-19T00:37:31.255Z,16.60
2018-01-19T00:38:31.242Z,17.30
2018-01-19T00:39:31.229Z,16.50
2018-01-19T00:40:31.219Z,17.50
2018-01-19T00:41:31.202Z,17.40
2018-01-19T00:42:31.210Z,18.20
2018-01-19T00:43:31.175Z,18.40
2018-01-19T00:44:31.160Z,17.20
2018-01-19T00:45:31.150Z,16.80
2018-01-19T00:46:31.133Z,17.00
2018-01-19T00:47:31.123Z,17.40
2018-01-19T00:48:31.109Z,17.70
2018-01-19T00:49:31.094Z,17.20
2018-01-19T00:50:31.086Z,17.70
2018-01-19T00:51:31.073Z,16.80
2018-01-19T00:52:31.058Z,17.20
2018-01-19T00:53:31.053Z,16.30
2018-01-19T00:54:31.032Z,18.00
2018-01-19T00:55:31.021Z,16.70
2018-01-19T00:56:31.010Z,17.30
2018-01-19T00:57:30.997Z,18.50
2018-01-19T00:58:30.984Z,16.40
2018-01-19T00:59:30.971Z,18.40
2018-01-19T01:00:30.957Z,17.50
2018-01-19T01:01:30.947Z,16.20
2018-01-19T01:02:30.930Z,17.00
2018-01-19T01:03:30.915Z,16.80
2018-01-19T01:04:30.908Z,17.10
2018-01-19T01:05:30.896Z,17.50
2018-01-19T01:06:30.881Z,17.50
2018-01-19T01:07:30.868Z,16.50
2018-01-19T01:08:30.854Z,16.80
2018-01-19T01:09:30.847Z,17.90
2018-01-19T01:10:30.827Z,17.80
2018-01-19T01:11:30.813Z,19.20
2018-01-19T01:12:30.803Z,18.40
2018-01-19T01:13:30.796Z,18.70
2018-01-19T01:14:30.777Z,18.50
2018-01-19T01:15:30.765Z,17.80
2018-01-19T01:16:30.756Z,17.40
2018-01-19T01:17:30.743Z,17.40
2018-01-19T01:18:30.729Z,17.60
2018-01-19T01:19:30.718Z,17.80
2018-01-19T01:20:30.707Z,18.30
2018-01-19T01:21:30.692Z,17.70
2018-01-19T01:22:30.678Z,17.70
2018-01-19T01:23:30.663Z,18.60
2018-01-19T01:24:30.662Z,18.70
2018-01-19T01:25:30.639Z,18.40
2018-01-19T01:26:30.640Z,18.30
2018-01-19T01:27:30.615Z,17.60
2018-01-19T01:28:30.597Z,18.00
2018-01-19T01:29:30.590Z,19.40
2018-01-19T01:30:30.573Z,19.60
2018-01-19T01:31:30.566Z,18.70
2018-01-19T01:32:30.551Z,17.70
2018-01-19T01:33:30.533Z,17.60
2018-01-19T01:34:30.524Z,17.80
2018-01-19T01:35:30.521Z,18.40
2018-01-19T01:36:30.498Z,17.90
2018-01-19T01:37:30.483Z,18.60
2018-01-19T01:38:30.476Z,19.20
2018-01-19T01:39:30.462Z,19.00
2018-01-19T01:40:30.461Z,19.70
2018-01-19T01:41:30.436Z,20.00
2018-01-19T01:42:30.426Z,19.60
2018-01-19T01:43:30.417Z,19.80
2018-01-19T01:44:30.395Z,19.20
2018-01-19T01:45:30.389Z,18.40
2018-01-19T01:46:30.376Z,19.40
2018-01-19T01:47:30.374Z,19.90
2018-01-19T01:48:30.347Z,19.20
2018-01-19T01:49:30.334Z,18.40
2018-01-19T01:50:30.324Z,19.90
2018-01-19T01:51:30.309Z,19.10
2018-01-19T01:52:30.297Z,20.30
2018-01-19T01:53:30.284Z,19.40
2018-01-19T01:54:30.269Z,19.90
2018-01-19T01:55:30.260Z,18.70
2018-01-19T01:56:30.244Z,19.40
2018-01-19T01:57:30.234Z,18.50
2018-01-19T01:58:30.218Z,18.70
2018-01-19T01:59:30.211Z,18.70
2018-01-19T02:00:30.198Z,18.40
2018-01-19T02:01:30.195Z,18.00
2018-01-19T02:02:30.172Z,19.00
2018-01-19T02:03:30.159Z,19.30
2018-01-19T02:04:30.141Z,17.90
2018-01-19T02:05:30.133Z,19.10
2018-01-19T02:06:30.124Z,18.80
2018-01-19T02:07:30.108Z,19.60
2018-01-19T02:08:30.095Z,20.10
2018-01-19T02:09:30.083Z,19.40
2018-01-19T02:10:30.070Z,19.40
2018-01-19T02:11:30.084Z,19.20
2018-01-19T02:12:30.045Z,19.80
2018-01-19T02:13:30.027Z,20.30
2018-01-19T02:14:30.015Z,19.90
2018-01-19T02:15:30.008Z,20.20
2018-01-19T02:16:29.994Z,20.10
2018-01-19T02:17:29.978Z,20.30
2018-01-19T02:18:29.968Z,19.70
2018-01-19T02:19:29.959Z,20.50
2018-01-19T02:20:29.943Z,20.00
2018-01-19T02:21:29.931Z,20.50
2018-01-19T02:22:29.920Z,21.40
2018-01-19T02:23:29.905Z,21.40
2018-01-19T02:24:29.894Z,20.30
2018-01-19T02:25:29.909Z,19.60
2018-01-19T02:26:29.869Z,21.10
2018-01-19T02:27:29.857Z,20.30
2018-01-19T02:28:29.846Z,20.30
2018-01-19T02:29:29.829Z,20.80
2018-01-19T02:30:29.815Z,20.90
2018-01-19T02:31:29.806Z,21.20
2018-01-19T02:32:29.791Z,21.20
2018-01-19T02:33:29.781Z,22.00
2018-01-19T02:34:29.767Z,21.10
2018-01-19T02:35:29.754Z,21.60
2018-01-19T02:36:29.743Z,21.50
2018-01-19T02:37:29.746Z,22.00
2018-01-19T02:38:29.720Z,22.60
2018-01-19T02:39:29.717Z,22.30
2018-01-19T02:40:29.699Z,22.80
2018-01-19T02:41:29.683Z,22.10
2018-01-19T02:42:29.666Z,22.60
2018-01-19T02:43:29.654Z,22.50
2018-01-19T02:44:29.659Z,22.50
2018-01-19T02:45:29.627Z,23.10
2018-01-19T02:46:29.618Z,23.10
2018-01-19T02:47:29.612Z,23.10
2018-01-19T02:48:29.592Z,22.30
2018-01-19T02:49:29.580Z,22.70
2018-01-19T02:50:29.569Z,22.40
2018-01-19T02:51:29.553Z,22.00
2018-01-19T02:52:29.544Z,22.70
2018-01-19T02:53:29.527Z,22.10
2018-01-19T02:54:29.516Z,21.30
2018-01-19T02:55:29.504Z,21.70
2018-01-19T02:56:29.492Z,22.20
2018-01-19T02:57:29.478Z,23.30
2018-01-19T02:58:29.465Z,21.80
2018-01-19T02:59:29.452Z,21.40
2018-01-19T03:00:29.442Z,22.50
2018-01-19T03:01:29.430Z,21.40
2018-01-19T03:02:29.419Z,21.40
2018-01-19T03:03:29.405Z,22.00
2018-01-19T03:04:29.392Z,21.80
2018-01-19T03:05:29.381Z,21.10
2018-01-19T03:06:29.367Z,22.20
2018-01-19T03:07:29.356Z,22.70
2018-01-19T03:08:29.345Z,22.50
2018-01-19T03:09:29.334Z,22.20
2018-01-19T03:10:29.320Z,22.60
2018-01-19T03:11:29.306Z,22.20
2018-01-19T03:12:29.290Z,21.90
2018-01-19T03:13:29.284Z,22.00
2018-01-19T03:14:29.265Z,22.00
2018-01-19T03:15:29.257Z,23.10
2018-01-19T03:16:29.240Z,23.70
2018-01-19T03:17:29.232Z,21.80
2018-01-19T03:18:29.224Z,22.90
2018-01-19T03:19:29.220Z,22.40
2018-01-19T03:20:29.193Z,22.10
2018-01-19T03:21:29.184Z,22.00
2018-01-19T03:22:29.169Z,21.60
2018-01-19T03:23:29.155Z,22.90
2018-01-19T03:24:29.148Z,21.20
2018-01-19T03:25:29.131Z,21.50
2018-01-19T03:26:29.124Z,22.40
2018-01-19T03:27:29.106Z,21.70
2018-01-19T03:28:29.096Z,22.70
2018-01-19T03:29:29.084Z,22.20
2018-01-19T03:30:29.072Z,21.50
2018-01-19T03:31:29.059Z,22.20
2018-01-19T03:32:29.045Z,21.80
2018-01-19T03:33:29.039Z,21.40
2018-01-19T03:34:29.036Z,23.00
2018-01-19T03:35:29.027Z,22.20
2018-01-19T03:36:29.000Z,22.50
2018-01-19T03:37:29.007Z,21.80
2018-01-19T03:38:28.974Z,21.50
2018-01-19T03:39:28.959Z,20.90
2018-01-19T03:40:28.945Z,20.50
2018-01-19T03:41:28.931Z,19.60
2018-01-19T03:42:28.921Z,19.10
2018-01-19T03:43:28.921Z,19.50
2018-01-19T03:44:28.907Z,18.90
2018-01-19T03:45:28.916Z,18.30
2018-01-19T03:46:28.874Z,18.30
2018-01-19T03:47:28.858Z,17.80
2018-01-19T03:48:28.850Z,18.50
2018-01-19T03:49:28.857Z,17.90
2018-01-19T03:50:28.832Z,17.20
2018-01-19T03:51:28.817Z,17.40
2018-01-19T03:52:28.809Z,17.80
2018-01-19T03:53:28.781Z,17.90
2018-01-19T03:54:28.774Z,18.30
2018-01-19T03:55:28.767Z,18.30
2018-01-19T03:56:28.773Z,18.60
2018-01-19T03:57:28.741Z,18.70
2018-01-19T03:58:28.724Z,17.80
2018-01-19T03:59:28.713Z,17.60
2018-01-19T04:00:28.698Z,17.70
2018-01-19T04:01:28.697Z,16.60
2018-01-19T04:02:28.678Z,16.00
2018-01-19T04:03:28.676Z,15.90
2018-01-19T04:04:28.649Z,14.90
2018-01-19T04:05:28.641Z,14.90
2018-01-19T04:06:28.642Z,14.50
2018-01-19T04:07:28.612Z,13.60
2018-01-19T04:08:28.599Z,14.30
2018-01-19T04:09:28.592Z,12.90
2018-01-19T04:10:28.589Z,11.90
2018-01-19T04:11:28.567Z,12.00
2018-01-19T04:12:28.552Z,13.40
2018-01-19T04:13:28.541Z,12.60
2018-01-19T04:14:28.534Z,12.30
2018-01-19T04:15:28.520Z,12.20
2018-01-19T04:16:28.504Z,12.30
2018-01-19T04:17:28.503Z,12.20
2018-01-19T04:18:28.490Z,12.20
2018-01-19T04:19:28.464Z,11.70
2018-01-19T04:20:28.450Z,12.20
2018-01-19T04:21:28.442Z,11.30
2018-01-19T04:22:28.433Z,11.90
2018-01-19T04:23:28.418Z,10.60
2018-01-19T04:24:28.406Z,11.20
2018-01-19T04:25:28.395Z,10.60
2018-01-19T04:26:28.376Z,11.10
2018-01-19T04:27:28.368Z,10.70
2018-01-19T04:28:28.353Z,10.60
2018-01-19T04:29:28.350Z,11.40
2018-01-19T04:30:28.345Z,10.90
2018-01-19T04:31:28.316Z,11.00
2018-01-19T04:32:28.310Z,10.90
2018-01-19T04:33:28.295Z,11.00
2018-01-19T04:34:28.280Z,11.40
2018-01-19T04:35:28.265Z,10.30
2018-01-19T04:36:28.265Z,11.60
2018-01-19T04:37:28.242Z,11.30
2018-01-19T04:38:28.231Z,12.00
2018-01-19T04:39:28.226Z,11.60
2018-01-19T04:40:28.210Z,11.40
2018-01-19T04:41:28.192Z,11.60
2018-01-19T04:42:28.176Z,11.90
2018-01-19T04:43:28.178Z,12.80
2018-01-19T04:44:28.156Z,12.70
2018-01-19T04:45:28.145Z,11.80
2018-01-19T04:46:28.128Z,13.00
2018-01-19T04:47:28.117Z,12.00
2018-01-19T04:48:28.106Z,12.90
2018-01-19T04:49:28.091Z,12.40
2018-01-19T04:50:28.078Z,12.10
2018-01-19T04:51:28.064Z,12.50
2018-01-19T04:52:28.054Z,13.20
2018-01-19T04:53:28.054Z,11.70
2018-01-19T04:56:00.715Z,13.50
2018-01-19T04:57:00.666Z,13.70
2018-01-19T04:58:00.650Z,13.10
2018-01-19T04:59:00.649Z,13.50
2018-01-19T05:00:00.627Z,13.30
2018-01-19T05:01:00.613Z,14.40
2018-01-19T05:02:00.606Z,13.50
2018-01-19T05:03:00.584Z,14.10
2018-01-19T05:04:00.595Z,13.80
2018-01-19T05:05:00.566Z,14.90
2018-01-19T05:06:00.557Z,14.10
2018-01-19T05:07:00.541Z,14.40
2018-01-19T05:08:00.523Z,14.20
2018-01-19T05:09:00.526Z,14.10
2018-01-19T05:10:00.505Z,13.70
2018-01-19T05:11:00.498Z,13.50
2018-01-19T05:12:00.472Z,14.00
2018-01-19T05:13:00.464Z,14.30
2018-01-19T05:14:00.446Z,14.30
2018-01-19T05:15:00.452Z,14.70
2018-01-19T05:16:00.427Z,14.00
2018-01-19T05:17:00.411Z,15.10
2018-01-19T05:18:00.397Z,14.90
2018-01-19T05:19:00.389Z,16.00
2018-01-19T05:20:00.388Z,15.10
2018-01-19T05:21:00.365Z,15.60
2018-01-19T05:22:00.347Z,16.70
2018-01-19T05:23:00.335Z,15.90
2018-01-19T05:24:00.317Z,16.70
2018-01-19T05:25:00.310Z,16.10
2018-01-19T05:26:00.297Z,17.10
2018-01-19T05:27:00.294Z,17.70
2018-01-19T05:28:00.277Z,17.20
2018-01-19T05:29:00.258Z,18.30
2018-01-19T05:30:00.247Z,18.20
2018-01-19T05:31:00.230Z,17.50
2018-01-19T05:32:00.224Z,19.60
2018-01-19T05:33:00.208Z,18.20
2018-01-19T05:34:00.195Z,19.70
2018-01-19T05:35:00.180Z,18.60
2018-01-19T05:36:00.176Z,19.50
2018-01-19T05:37:00.160Z,18.90
2018-01-19T05:38:00.148Z,18.50
2018-01-19T05:39:00.132Z,19.30
2018-01-19T05:40:00.119Z,20.10
2018-01-19T05:41:00.111Z,19.00
2018-01-19T05:42:00.115Z,19.80
2018-01-19T05:43:00.099Z,19.60
2018-01-19T05:44:00.068Z,20.00
2018-01-19T05:45:00.059Z,20.90
2018-01-19T05:46:00.046Z,19.90
2018-01-19T05:47:00.034Z,20.40
2018-01-19T05:48:00.051Z,20.30
2018-01-19T05:49:00.009Z,19.90
2018-01-19T05:49:59.994Z,20.20
2018-01-19T05:50:59.983Z,20.20
2018-01-19T05:51:59.974Z,20.90
2018-01-19T05:52:59.953Z,20.50
2018-01-19T05:53:59.945Z,20.90
2018-01-19T05:54:59.932Z,20.70
2018-01-19T05:55:59.919Z,20.50
2018-01-19T05:56:59.903Z,21.20
2018-01-19T05:57:59.895Z,19.80
2018-01-19T05:58:59.892Z,20.70
2018-01-19T05:59:59.868Z,21.40
2018-01-19T06:00:59.852Z,20.20
2018-01-19T06:01:59.845Z,22.50
2018-01-19T06:02:59.829Z,22.20
2018-01-19T06:03:59.822Z,21.70
2018-01-19T06:04:59.804Z,22.70
2018-01-19T06:05:59.793Z,21.20
2018-01-19T06:06:59.780Z,22.20
2018-01-19T06:07:59.766Z,21.50
2018-01-19T06:08:59.756Z,21.30
2018-01-19T06:09:59.742Z,21.80
2018-01-19T06:10:59.725Z,22.30
2018-01-19T06:11:59.716Z,21.80
2018-01-19T06:12:59.702Z,22.30
2018-01-19T06:13:59.707Z,22.90
2018-01-19T06:14:59.680Z,22.60
2018-01-19T06:15:59.666Z,23.40
2018-01-19T06:16:59.651Z,23.20
2018-01-19T06:17:59.643Z,22.80
2018-01-19T06:18:59.628Z,21.90
2018-01-19T06:19:59.616Z,23.00
2018-01-19T06:20:59.602Z,23.40
2018-01-19T06:21:59.585Z,24.10
2018-01-19T06:22:59.576Z,22.70
2018-01-19T06:23:59.577Z,23.50
2018-01-19T06:24:59.552Z,22.30
2018-01-19T06:25:59.560Z,23.30
2018-01-19T06:26:59.526Z,24.10
2018-01-19T06:27:59.512Z,23.20
2018-01-19T06:28:59.507Z,23.20
2018-01-19T06:29:59.512Z,23.90
2018-01-19T06:30:59.492Z,23.60
2018-01-19T06:31:59.468Z,23.90
2018-01-19T06:32:59.450Z,24.10
2018-01-19T06:33:59.451Z,24.30
2018-01-19T06:34:59.428Z,23.50
2018-01-19T06:35:59.415Z,24.30
2018-01-19T06:36:59.403Z,24.10
2018-01-19T06:37:59.387Z,25.00
2018-01-19T06:38:59.383Z,25.00
2018-01-19T06:39:59.363Z,23.60
2018-01-19T06:40:59.380Z,24.40
2018-01-19T06:41:59.339Z,23.80
2018-01-19T06:42:59.323Z,24.30
2018-01-19T06:43:59.322Z,23.80
2018-01-19T06:44:59.311Z,25.00
2018-01-19T06:45:59.283Z,25.00
2018-01-19T06:46:59.270Z,25.50
2018-01-19T06:47:59.258Z,24.80
2018-01-19T06:48:59.262Z,24.30
2018-01-19T06:49:59.235Z,24.80
2018-01-19T06:50:59.224Z,23.70
2018-01-19T06:51:59.225Z,24.50
2018-01-19T06:52:59.201Z,25.30
2018-01-19T06:53:59.184Z,24.80
2018-01-19T06:54:59.177Z,25.50
2018-01-19T06:55:59.161Z,26.10
2018-01-19T06:56:59.141Z,25.30
2018-01-19T06:57:59.137Z,24.70
2018-01-19T06:58:59.121Z,25.00
2018-01-19T06:59:59.110Z,25.30
2018-01-19T07:00:59.110Z,24.80
2018-01-19T07:01:59.084Z,26.10
2018-01-19T07:02:59.070Z,25.40
2018-01-19T07:03:59.062Z,24.60
2018-01-19T07:04:59.049Z,25.30
2018-01-19T07:05:59.037Z,25.80
2018-01-19T07:06:59.024Z,23.30
2018-01-19T07:07:59.013Z,24.90
2018-01-19T07:08:58.999Z,23.00
2018-01-19T07:09:58.986Z,24.60
2018-01-19T07:10:58.971Z,24.30
2018-01-19T07:11:58.966Z,23.70
2018-01-19T07:12:58.953Z,23.40
2018-01-19T07:13:58.937Z,24.20
2018-01-19T07:14:58.917Z,23.90
2018-01-19T07:15:58.912Z,23.60
2018-01-19T07:16:58.901Z,23.80
2018-01-19T07:17:58.888Z,24.00
2018-01-19T07:18:58.872Z,23.70
2018-01-19T07:19:58.859Z,22.80
2018-01-19T07:20:58.847Z,21.90
2018-01-19T07:21:58.861Z,21.90
2018-01-19T07:22:58.823Z,21.10
2018-01-19T07:23:58.816Z,22.60
2018-01-19T07:24:58.799Z,20.90
2018-01-19T07:25:58.788Z,21.30
2018-01-19T07:26:58.774Z,21.40
2018-01-19T07:27:58.759Z,21.20
2018-01-19T07:28:58.744Z,22.20
2018-01-19T07:29:58.740Z,20.40
2018-01-19T07:30:58.723Z,21.40
2018-01-19T07:31:58.710Z,21.30
2018-01-19T07:32:58.693Z,21.00
2018-01-19T07:33:58.685Z,20.50
2018-01-19T07:34:58.670Z,20.90
2018-01-19T07:35:58.658Z,21.20
2018-01-19T07:36:58.644Z,19.70
2018-01-19T07:37:58.640Z,20.50
2018-01-19T07:38:58.621Z,20.30
2018-01-19T07:39:58.612Z,20.00
2018-01-19T07:40:58.597Z,21.10
2018-01-19T07:41:58.584Z,20.80
2018-01-19T07:42:58.579Z,20.10
2018-01-19T07:43:58.568Z,20.60
2018-01-19T07:44:58.556Z,21.00
2018-01-19T07:45:58.533Z,21.90
2018-01-19T07:46:58.515Z,20.80
2018-01-19T07:47:58.507Z,21.60
2018-01-19T07:48:58.500Z,22.80
2018-01-19T07:49:58.486Z,22.50
2018-01-19T07:50:58.475Z,21.50
2018-01-19T07:51:58.459Z,21.60
2018-01-19T07:52:58.444Z,21.60
2018-01-19T07:53:58.431Z,23.30
2018-01-19T07:54:58.439Z,22.50
2018-01-19T07:55:58.409Z,22.40
2018-01-19T07:56:58.397Z,21.90
2018-01-19T07:57:58.386Z,21.80
2018-01-19T07:58:58.371Z,21.30
2018-01-19T07:59:58.361Z,20.30
2018-01-19T08:00:58.361Z,20.70
2018-01-19T08:01:58.337Z,18.20
2018-01-19T08:02:58.320Z,18.90
2018-01-19T08:03:58.309Z,17.40
2018-01-19T08:04:58.299Z,17.80
2018-01-19T08:05:58.285Z,16.30
2018-01-19T08:06:58.270Z,17.10
2018-01-19T08:07:58.258Z,16.60
2018-01-19T08:08:58.404Z,16.10
2018-01-19T08:09:58.250Z,16.20
2018-01-19T08:10:58.220Z,17.00
2018-01-19T08:11:58.209Z,15.90
2018-01-19T08:12:58.197Z,16.70
2018-01-19T08:13:58.182Z,16.70
2018-01-19T08:14:58.170Z,16.80
2018-01-19T08:15:58.183Z,17.90
2018-01-19T08:16:58.145Z,17.70
2018-01-19T08:17:58.129Z,18.70
2018-01-19T08:18:58.121Z,17.70
2018-01-19T08:19:58.108Z,18.40
2018-01-19T08:20:58.099Z,17.80
2018-01-19T08:21:58.092Z,17.20
2018-01-19T08:22:58.094Z,18.50
2018-01-19T08:23:58.058Z,18.30
2018-01-19T08:24:58.050Z,19.50
2018-01-19T08:25:58.036Z,19.80
2018-01-19T08:26:58.037Z,19.40
2018-01-19T08:27:58.023Z,19.50
2018-01-19T08:28:57.995Z,19.30
2018-01-19T08:29:57.979Z,20.60
2018-01-19T08:30:57.966Z,19.20
2018-01-19T08:31:57.967Z,20.20
2018-01-19T08:32:57.970Z,20.10
2018-01-19T08:33:57.992Z,21.90
2018-01-19T08:34:57.915Z,20.50
2018-01-19T08:35:57.916Z,20.40
2018-01-19T08:36:57.906Z,20.90
2018-01-19T08:37:57.878Z,20.40
2018-01-19T08:38:57.864Z,20.90
2018-01-19T08:39:57.862Z,20.30
2018-01-19T08:40:57.841Z,20.70
2018-01-19T08:41:57.828Z,20.90
2018-01-19T08:42:57.860Z,21.20
2018-01-19T08:43:57.808Z,22.00
2018-01-19T08:44:57.810Z,21.30
2018-01-19T08:45:57.778Z,21.10
2018-01-19T08:46:57.767Z,21.40
2018-01-19T08:47:57.761Z,21.80
2018-01-19T08:48:57.743Z,20.70
2018-01-19T08:49:57.728Z,21.30
2018-01-19T08:50:57.729Z,21.40
2018-01-19T08:51:57.706Z,20.70
2018-01-19T08:52:57.695Z,21.90
2018-01-19T08:53:57.680Z,20.70
2018-01-19T08:54:57.668Z,21.20
2018-01-19T08:55:57.655Z,21.70
2018-01-19T08:56:57.646Z,20.70
2018-01-19T08:57:57.645Z,21.10
2018-01-19T08:58:57.639Z,19.70
2018-01-19T08:59:57.620Z,21.40
2018-01-19T09:00:57.593Z,21.10
2018-01-19T09:01:57.596Z,21.00
2018-01-19T09:02:57.583Z,20.70
2018-01-19T09:03:57.564Z,19.20
2018-01-19T09:04:57.568Z,20.00
2018-01-19T09:05:57.539Z,20.90
2018-01-19T09:06:57.518Z,19.60
2018-01-19T09:07:57.514Z,20.20
2018-01-19T09:08:57.491Z,18.90
2018-01-19T09:09:57.483Z,18.80
2018-01-19T09:10:57.477Z,19.90
2018-01-19T09:11:57.456Z,20.50
2018-01-19T09:12:57.458Z,19.50
2018-01-19T09:13:57.434Z,19.50
2018-01-19T09:14:57.425Z,20.00
2018-01-19T09:15:57.411Z,18.30
2018-01-19T09:16:57.398Z,18.40
2018-01-19T09:17:57.397Z,19.10
2018-01-19T09:18:57.391Z,19.20
2018-01-19T09:19:57.361Z,18.80
2018-01-19T09:20:57.349Z,18.00
2018-01-19T09:21:57.336Z,18.50
2018-01-19T09:22:57.324Z,18.30
2018-01-19T09:23:57.331Z,18.30
2018-01-19T09:24:57.302Z,18.30
2018-01-19T09:25:57.291Z,18.00
2018-01-19T09:26:57.278Z,19.00
2018-01-19T09:27:57.262Z,18.80
2018-01-19T09:28:57.263Z,17.70
2018-01-19T09:29:57.239Z,17.90
2018-01-19T09:30:57.245Z,17.50
2018-01-19T09:31:57.216Z,17.90
2018-01-19T09:32:57.203Z,18.40
2018-01-19T09:33:57.195Z,18.60
2018-01-19T09:34:57.180Z,18.40
2018-01-19T09:35:57.172Z,18.60
2018-01-19T09:36:57.158Z,18.20
2018-01-19T09:37:57.149Z,18.40
2018-01-19T09:38:57.153Z,18.60
2018-01-19T09:39:57.124Z,18.90
2018-01-19T09:40:57.110Z,19.70
2018-01-19T09:41:57.108Z,18.60
2018-01-19T09:42:57.087Z,17.10
2018-01-19T09:43:57.071Z,17.80
2018-01-19T09:44:57.093Z,17.70
2018-01-19T09:45:57.052Z,19.50
2018-01-19T09:46:57.045Z,17.40
2018-01-19T09:47:57.020Z,17.90
2018-01-19T09:48:57.010Z,18.10
2018-01-19T09:49:57.001Z,18.20
2018-01-19T09:50:56.992Z,17.70
2018-01-19T09:51:56.984Z,17.90
2018-01-19T09:52:56.965Z,18.60
2018-01-19T09:53:56.954Z,19.00
2018-01-19T09:54:56.943Z,18.10
2018-01-19T09:55:56.932Z,18.10
2018-01-19T09:56:56.912Z,18.60
2018-01-19T09:57:56.902Z,18.40
2018-01-19T09:58:56.893Z,18.30
2018-01-19T09:59:56.876Z,18.30
2018-01-19T10:00:56.870Z,17.50
2018-01-19T10:01:56.859Z,18.30
2018-01-19T10:02:56.850Z,18.40
2018-01-19T10:03:56.845Z,18.10
2018-01-19T10:04:56.820Z,18.40
2018-01-19T10:05:56.810Z,18.20
2018-01-19T10:06:56.803Z,18.10
2018-01-19T10:07:56.783Z,17.60
2018-01-19T10:08:56.777Z,17.50
2018-01-19T10:09:56.765Z,18.10
2018-01-19T10:10:56.755Z,15.80
2018-01-19T10:11:56.734Z,15.90
2018-01-19T10:12:56.728Z,16.30
2018-01-19T10:13:56.714Z,16.50
2018-01-19T10:14:56.717Z,16.80
2018-01-19T10:15:56.687Z,16.60
2018-01-19T10:16:56.679Z,15.90
2018-01-19T10:17:56.672Z,15.50
2018-01-19T10:18:56.670Z,14.80
2018-01-19T10:19:56.642Z,15.70
2018-01-19T10:20:56.635Z,14.70
2018-01-19T10:21:56.628Z,14.80
2018-01-19T10:22:56.612Z,15.00
2018-01-19T10:23:56.598Z,15.60
2018-01-19T10:24:56.585Z,15.30
2018-01-19T10:25:56.578Z,15.70
2018-01-19T10:26:56.565Z,16.20
2018-01-19T10:27:56.556Z,14.80
2018-01-19T10:28:56.557Z,15.50
2018-01-19T10:29:56.540Z,15.80
2018-01-19T10:30:56.516Z,14.40
2018-01-19T10:31:56.511Z,14.70
2018-01-19T10:32:56.537Z,15.60
2018-01-19T10:33:56.487Z,14.60
2018-01-19T10:34:56.473Z,14.40
2018-01-19T10:35:56.461Z,15.10
2018-01-19T10:36:56.465Z,14.90
2018-01-19T10:37:56.438Z,14.30
2018-01-19T10:38:56.434Z,15.00
2018-01-19T10:39:56.417Z,14.80
2018-01-19T10:40:56.407Z,14.80
2018-01-19T10:41:56.396Z,14.50
2018-01-19T10:42:56.383Z,14.10
2018-01-19T10:43:56.370Z,15.20
2018-01-19T10:44:56.362Z,15.10
2018-01-19T10:45:56.354Z,14.00
2018-01-19T10:46:56.334Z,14.20
2018-01-19T10:47:56.330Z,14.60
2018-01-19T10:48:56.320Z,15.50
2018-01-19T10:49:56.303Z,14.60
2018-01-19T10:50:56.292Z,15.50
2018-01-19T10:51:56.281Z,14.40
2018-01-19T10:52:56.267Z,14.60
2018-01-19T10:53:56.255Z,15.70
2018-01-19T10:54:56.246Z,14.30
2018-01-19T10:55:56.246Z,14.70
2018-01-19T10:56:56.224Z,13.60
2018-01-19T10:57:56.215Z,13.50
2018-01-19T10:58:56.201Z,13.00
2018-01-19T10:59:56.275Z,12.80
2018-01-19T11:00:56.185Z,13.00
2018-01-19T11:01:56.177Z,13.80
2018-01-19T11:02:56.166Z,12.70
2018-01-19T11:03:56.150Z,14.00
2018-01-19T11:04:56.138Z,12.50
2018-01-19T11:05:56.125Z,12.60
2018-01-19T11:06:56.116Z,11.50
2018-01-19T11:07:56.109Z,11.80
2018-01-19T11:08:56.095Z,11.80
2018-01-19T11:09:56.080Z,11.10
2018-01-19T11:10:56.074Z,10.40
2018-01-19T11:11:56.061Z,11.50
2018-01-19T11:12:56.058Z,11.10
2018-01-19T11:13:56.046Z,11.00
2018-01-19T11:14:56.032Z,11.40
2018-01-19T11:15:56.020Z,10.60
2018-01-19T11:16:56.012Z,11.30
2018-01-19T11:17:55.999Z,11.40
2018-01-19T11:18:55.991Z,10.70
2018-01-19T11:19:55.976Z,11.40
2018-01-19T11:20:55.969Z,11.30
2018-01-19T11:21:55.959Z,12.00
2018-01-19T11:22:55.948Z,11.70
2018-01-19T11:23:55.937Z,11.80
2018-01-19T11:24:55.927Z,11.50
2018-01-19T11:25:55.917Z,10.70
2018-01-19T11:26:55.908Z,11.50
2018-01-19T11:27:55.895Z,11.10
2018-01-19T11:28:55.883Z,11.40
2018-01-19T11:29:55.872Z,11.30
2018-01-19T11:30:55.861Z,11.00
2018-01-19T11:31:55.855Z,11.10
2018-01-19T11:32:55.842Z,10.30
2018-01-19T11:33:55.847Z,11.60
2018-01-19T11:34:55.819Z,10.90
2018-01-19T11:35:55.804Z,9.60
2018-01-19T11:36:55.798Z,10.00
2018-01-19T11:37:55.787Z,10.70
2018-01-19T11:38:55.783Z,10.30
2018-01-19T11:39:55.763Z,10.60
2018-01-19T11:40:55.755Z,9.20
2018-01-19T11:41:55.744Z,10.40
2018-01-19T11:42:55.732Z,9.60
2018-01-19T11:43:55.722Z,9.40
2018-01-19T11:44:55.713Z,9.50
2018-01-19T11:45:55.700Z,9.10
2018-01-19T11:46:55.684Z,10.70
2018-01-19T11:47:55.678Z,9.60
2018-01-19T11:48:55.669Z,10.50
2018-01-19T11:49:55.659Z,9.80
2018-01-19T11:50:55.645Z,10.00
2018-01-19T11:51:55.635Z,9.90
2018-01-19T11:52:55.624Z,9.90
2018-01-19T11:53:55.612Z,9.00
2018-01-19T11:54:55.605Z,8.40
2018-01-19T11:55:55.596Z,9.90
2018-01-19T11:56:55.584Z,9.90
2018-01-19T11:57:55.569Z,10.00
2018-01-19T11:58:55.558Z,10.00
2018-01-19T11:59:55.552Z,9.60
2018-01-19T12:00:55.539Z,10.20
2018-01-19T12:01:55.532Z,10.70
2018-01-19T12:02:55.523Z,9.80
2018-01-19T12:03:55.518Z,10.40
2018-01-19T12:04:55.515Z,10.30
2018-01-19T12:05:55.495Z,10.70
2018-01-19T12:06:55.474Z,10.10
2018-01-19T12:07:55.468Z,10.70
2018-01-19T12:08:55.459Z,11.00
2018-01-19T12:09:55.453Z,10.20
2018-01-19T12:10:55.438Z,10.80
2018-01-19T12:11:55.425Z,11.30
2018-01-19T12:12:55.420Z,10.80
2018-01-19T12:13:55.406Z,11.30
2018-01-19T12:14:55.392Z,11.10
2018-01-19T12:15:55.381Z,11.60
2018-01-19T12:16:55.399Z,10.60
2018-01-19T12:17:55.363Z,11.40
2018-01-19T12:18:55.357Z,11.70
2018-01-19T12:19:55.341Z,11.00
2018-01-19T12:20:55.324Z,11.10
2018-01-19T12:21:55.318Z,11.00
2018-01-19T12:22:55.312Z,12.20
2018-01-19T12:23:55.296Z,11.70
2018-01-19T12:24:55.285Z,11.50
2018-01-19T12:25:55.276Z,11.30
2018-01-19T12:26:55.268Z,11.70
2018-01-19T12:27:55.255Z,12.30
2018-01-19T12:28:55.245Z,12.40
2018-01-19T12:29:55.237Z,11.20
2018-01-19T12:30:55.220Z,11.80
2018-01-19T12:31:55.212Z,11.20
2018-01-19T12:32:55.199Z,11.20
2018-01-19T12:33:55.193Z,11.30
2018-01-19T12:34:55.176Z,11.20
2018-01-19T12:35:55.170Z,10.90
2018-01-19T12:36:55.156Z,11.40
2018-01-19T12:37:55.201Z,11.30
2018-01-19T12:38:55.134Z,11.00
2018-01-19T12:39:55.126Z,10.60
2018-01-19T12:40:55.110Z,11.40
2018-01-19T12:41:55.105Z,11.00
2018-01-19T12:42:55.127Z,11.50
2018-01-19T12:43:55.086Z,11.40
2018-01-19T12:44:55.067Z,11.20
2018-01-19T12:45:55.059Z,11.10
2018-01-19T12:46:55.049Z,12.20
2018-01-19T12:47:55.039Z,12.00
2018-01-19T12:48:55.026Z,12.00
2018-01-19T12:49:55.020Z,10.90
2018-01-19T12:50:55.004Z,11.40
2018-01-19T12:51:54.995Z,11.00
2018-01-19T12:52:54.983Z,10.60
2018-01-19T12:53:54.981Z,10.80
2018-01-19T12:54:54.968Z,11.50